Terminal Aerodrome Forecast
Issued by NWS

Home | Current Version | Previous Version | Text Only | Print | Product List | Glossary On
Versions: 1 2 3 4 5 6 7 8 9 10 11 12 13 14 15 16 17 18 19 20 21 22 23
000
FTUS43 KDLH 052345
TAFHIB
TAF
KHIB 052345Z 0600/0624 18007KT P6SM VCTS FEW035CB
     FM060100 21010KT 5SM -SHRA BR VCTS OVC050CB
      TEMPO 0601/0605 1SM -TSRA BR OVC030CB
     FM060500 VRB04KT 2SM SHRA BR OVC020
      TEMPO 0605/0608 1SM -TSRA OVC010CB
     FM060800 35006KT 4SM -SHRA BR OVC010
      TEMPO 0608/0612 1SM -SHRA BR OVC005
     FM061800 36010KT 2SM BR OVC007
     FM062100 35009KT P6SM BKN250=

USA.gov is the U.S. government's official web portal to all federal, state and local government web resources and services.